Airfield :
LOGIN :

Register | Disclaimer

   EN    FR    IT 

 










Legend :    VFR   Marginal VFR   IFR   Intensive IFR   Very Intensive IFR
Visi :
Ceiling :
>= 8 km
>= 3000ft
5 to 8 km
1000 to 3000 ft
1500m to 5 km
500 to 1000 ft
800 to 1500m
200 to 500 ft
< 800m
< 200 ft
Symbols :   Thunderstorms  Fog  Heavy snow  Heavy precipitations  Wind > 20 kt
SIGMETs :     Misc.  Thunderstorms  Icing  Turbulence  Mountain Waves  Volcanic Ashes






- Airport Elevation : 202 ft
- IATA code : LGW


EGKK - London Gatwick

CURRENT METAR :
  • 171150Z 32015KT 280V350 9999 FEW044 11/M02 Q1015

EXPIRED METARs :
  • 171120Z 33012KT 9999 SCT035 09/00 Q1015
  • 171050Z 31012KT 270V340 9999 SCT035 10/01 Q1015
  • 171020Z 31012KT 9999 FEW033 SCT047 09/02 Q1015
  • 170950Z 32011KT 280V350 9999 SCT033 09/01 Q1015
  • 170920Z 32013KT 9999 SCT028 08/02 Q1016
  • 170850Z 31014KT 9999 SCT024 08/02 Q1016
  • 170820Z 32014KT 9999 SCT021 08/03 Q1016
  • 170750Z 31016KT 9999 SCT022 07/02 Q1016
  • 170720Z 31013KT 9999 FEW023 07/02 Q1016

TAF TAF EGKK
Valid from the 17 at 12:00 until the 18 at 18:00 UTC


171057Z 1712/1818 32012KT 9999 SCT030
PROB30
TEMPO 1712/1721 33015G25KT 8000 SHRA



MET'MAP, your aeronautical weather chart ! - Copyright ORBIFLY December 2007 - Disclaimer

ORBIFLY MET'MAP TEAM :

Programming & Development : Alexandra Zaïnal
Original concept : Baudouin d'Aumeries
Technical & hardware support : Manuel Goepfert
Assistance : Marc-Olivier Méhu




SOURCES & CREDITS :

   NOAA